sensor_id;sensor_type;location;lat;lon;timestamp;pressure;altitude;pressure_sealevel;temperature;humidity
6567;BME280;3317;43.994;22.878;2022-09-03T00:01:43;101014.53;;;19.55;74.50
6567;BME280;3317;43.994;22.878;2022-09-03T00:04:23;101005.59;;;19.53;74.28
6567;BME280;3317;43.994;22.878;2022-09-03T00:06:59;101015.34;;;19.56;73.98
6567;BME280;3317;43.994;22.878;2022-09-03T00:09:30;100998.00;;;19.49;74.42
6567;BME280;3317;43.994;22.878;2022-09-03T00:12:04;101014.53;;;19.55;73.85
6567;BME280;3317;43.994;22.878;2022-09-03T00:14:37;101022.09;;;19.53;73.95
6567;BME280;3317;43.994;22.878;2022-09-03T00:17:19;101008.56;;;19.45;73.79
6567;BME280;3317;43.994;22.878;2022-09-03T00:19:54;101024.03;;;19.53;74.02
6567;BME280;3317;43.994;22.878;2022-09-03T00:22:24;101015.97;;;19.51;73.86
6567;BME280;3317;43.994;22.878;2022-09-03T00:24:56;101024.22;;;19.51;73.78
6567;BME280;3317;43.994;22.878;2022-09-03T00:27:27;101025.50;;;19.49;74.34
6567;BME280;3317;43.994;22.878;2022-09-03T00:29:57;101014.44;;;19.42;74.21
6567;BME280;3317;43.994;22.878;2022-09-03T00:32:35;101031.19;;;19.47;74.37
6567;BME280;3317;43.994;22.878;2022-09-03T00:35:06;101010.66;;;19.36;74.19
6567;BME280;3317;43.994;22.878;2022-09-03T00:37:35;101031.38;;;19.46;74.15
6567;BME280;3317;43.994;22.878;2022-09-03T00:40:04;101028.63;;;19.46;73.72
6567;BME280;3317;43.994;22.878;2022-09-03T00:42:43;101019.56;;;19.45;73.97
6567;BME280;3317;43.994;22.878;2022-09-03T00:45:19;101031.59;;;19.44;74.33
6567;BME280;3317;43.994;22.878;2022-09-03T00:48:02;101028.63;;;19.46;74.07
6567;BME280;3317;43.994;22.878;2022-09-03T00:50:42;101034.34;;;19.44;74.03
6567;BME280;3317;43.994;22.878;2022-09-03T00:53:16;101038.16;;;19.43;74.15
6567;BME280;3317;43.994;22.878;2022-09-03T00:55:53;101020.81;;;19.42;74.03
6567;BME280;3317;43.994;22.878;2022-09-03T00:58:35;101028.84;;;19.44;73.55
6567;BME280;3317;43.994;22.878;2022-09-03T01:01:13;101023.56;;;19.42;73.44
6567;BME280;3317;43.994;22.878;2022-09-03T01:03:49;101033.50;;;19.44;73.04
6567;BME280;3317;43.994;22.878;2022-09-03T01:06:21;101037.94;;;19.45;72.44
6567;BME280;3317;43.994;22.878;2022-09-03T01:09:08;101037.09;;;19.44;72.51
6567;BME280;3317;43.994;22.878;2022-09-03T01:11:45;101035.41;;;19.43;73.10
6567;BME280;3317;43.994;22.878;2022-09-03T01:14:22;101015.72;;;19.33;72.64
6567;BME280;3317;43.994;22.878;2022-09-03T01:16:56;101000.63;;;19.22;72.06
6567;BME280;3317;43.994;22.878;2022-09-03T01:19:53;101043.66;;;19.43;72.04
6567;BME280;3317;43.994;22.878;2022-09-03T01:22:53;101038.16;;;19.43;72.16
6567;BME280;3317;43.994;22.878;2022-09-03T01:25:36;101026.47;;;19.34;72.14
6567;BME280;3317;43.994;22.878;2022-09-03T01:28:22;101041.09;;;19.41;71.81
6567;BME280;3317;43.994;22.878;2022-09-03T01:31:04;101034.75;;;19.41;72.02
6567;BME280;3317;43.994;22.878;2022-09-03T01:33:40;101050.16;;;19.42;72.46
6567;BME280;3317;43.994;22.878;2022-09-03T01:36:16;101049.34;;;19.41;72.17
6567;BME280;3317;43.994;22.878;2022-09-03T01:38:50;101047.84;;;19.39;72.43
6567;BME280;3317;43.994;22.878;2022-09-03T01:41:26;101042.34;;;19.39;72.35
6567;BME280;3317;43.994;22.878;2022-09-03T01:44:27;101044.03;;;19.40;72.12
6567;BME280;3317;43.994;22.878;2022-09-03T01:47:03;101047.19;;;19.37;71.96
6567;BME280;3317;43.994;22.878;2022-09-03T01:49:39;101041.06;;;19.35;72.01
6567;BME280;3317;43.994;22.878;2022-09-03T01:52:11;101031.97;;;19.34;72.19
6567;BME280;3317;43.994;22.878;2022-09-03T01:55:01;101043.19;;;19.33;72.01
6567;BME280;3317;43.994;22.878;2022-09-03T01:57:46;101038.09;;;19.30;72.27
6567;BME280;3317;43.994;22.878;2022-09-03T02:00:22;100994.81;;;18.96;72.38
6567;BME280;3317;43.994;22.878;2022-09-03T02:02:51;101053.91;;;19.27;72.40
6567;BME280;3317;43.994;22.878;2022-09-03T02:05:20;101040.81;;;19.23;72.37
6567;BME280;3317;43.994;22.878;2022-09-03T02:07:53;101002.19;;;18.96;72.42
6567;BME280;3317;43.994;22.878;2022-09-03T02:10:23;101041.44;;;19.18;72.38
6567;BME280;3317;43.994;22.878;2022-09-03T02:12:58;101041.81;;;19.15;72.56
6567;BME280;3317;43.994;22.878;2022-09-03T02:15:29;101011.53;;;19.02;72.38
6567;BME280;3317;43.994;22.878;2022-09-03T02:18:02;101048.38;;;19.21;72.43
6567;BME280;3317;43.994;22.878;2022-09-03T02:20:31;101054.94;;;19.20;72.75
6567;BME280;3317;43.994;22.878;2022-09-03T02:22:59;101052.41;;;19.18;72.49
6567;BME280;3317;43.994;22.878;2022-09-03T02:25:32;101049.00;;;19.16;72.77
6567;BME280;3317;43.994;22.878;2022-09-03T02:28:02;101051.97;;;19.14;72.25
6567;BME280;3317;43.994;22.878;2022-09-03T02:30:32;101036.69;;;19.05;72.34
6567;BME280;3317;43.994;22.878;2022-09-03T02:33:00;101039.25;;;19.07;72.38
6567;BME280;3317;43.994;22.878;2022-09-03T02:35:29;101056.59;;;19.14;72.47
6567;BME280;3317;43.994;22.878;2022-09-03T02:37:56;101012.06;;;18.90;72.73
6567;BME280;3317;43.994;22.878;2022-09-03T02:40:23;101042.88;;;19.14;72.09
6567;BME280;3317;43.994;22.878;2022-09-03T02:42:52;101046.22;;;19.09;72.03
6567;BME280;3317;43.994;22.878;2022-09-03T02:45:24;101047.53;;;19.13;72.10
6567;BME280;3317;43.994;22.878;2022-09-03T02:47:56;101070.56;;;19.12;72.01
6567;BME280;3317;43.994;22.878;2022-09-03T02:50:25;101066.94;;;19.12;72.40
6567;BME280;3317;43.994;22.878;2022-09-03T02:52:52;101074.13;;;19.13;72.14
6567;BME280;3317;43.994;22.878;2022-09-03T02:55:20;101051.91;;;19.01;71.79
6567;BME280;3317;43.994;22.878;2022-09-03T02:57:47;101064.19;;;19.12;71.64
6567;BME280;3317;43.994;22.878;2022-09-03T03:00:14;101052.13;;;19.06;71.90
6567;BME280;3317;43.994;22.878;2022-09-03T03:02:41;101059.56;;;19.12;71.71
6567;BME280;3317;43.994;22.878;2022-09-03T03:05:15;101060.81;;;19.10;71.78
6567;BME280;3317;43.994;22.878;2022-09-03T03:07:44;101068.00;;;19.11;71.90
6567;BME280;3317;43.994;22.878;2022-09-03T03:10:18;101066.47;;;19.02;72.54
6567;BME280;3317;43.994;22.878;2022-09-03T03:12:45;101071.16;;;19.08;73.22
6567;BME280;3317;43.994;22.878;2022-09-03T03:15:13;101059.31;;;19.07;73.38
6567;BME280;3317;43.994;22.878;2022-09-03T03:17:40;101054.69;;;19.08;72.85
6567;BME280;3317;43.994;22.878;2022-09-03T03:20:08;101048.13;;;19.09;72.78
6567;BME280;3317;43.994;22.878;2022-09-03T03:22:36;101054.28;;;19.11;72.37
6567;BME280;3317;43.994;22.878;2022-09-03T03:25:04;101053.44;;;19.10;71.99
6567;BME280;3317;43.994;22.878;2022-09-03T03:27:31;101058.06;;;19.10;71.97
6567;BME280;3317;43.994;22.878;2022-09-03T03:29:58;101062.50;;;19.11;72.15
6567;BME280;3317;43.994;22.878;2022-09-03T03:32:26;101072.44;;;19.12;71.91
6567;BME280;3317;43.994;22.878;2022-09-03T03:34:53;101064.44;;;19.10;72.10
6567;BME280;3317;43.994;22.878;2022-09-03T03:37:19;101060.81;;;19.10;72.40
6567;BME280;3317;43.994;22.878;2022-09-03T03:39:48;101069.28;;;19.15;72.29
6567;BME280;3317;43.994;22.878;2022-09-03T03:42:16;101066.75;;;19.13;72.22
6567;BME280;3317;43.994;22.878;2022-09-03T03:44:44;101015.84;;;18.82;71.75
6567;BME280;3317;43.994;22.878;2022-09-03T03:47:14;101067.81;;;19.12;72.12
6567;BME280;3317;43.994;22.878;2022-09-03T03:49:42;101068.63;;;19.13;72.19
6567;BME280;3317;43.994;22.878;2022-09-03T03:52:09;101070.34;;;19.14;72.60
6567;BME280;3317;43.994;22.878;2022-09-03T03:54:36;101070.16;;;19.16;72.75
6567;BME280;3317;43.994;22.878;2022-09-03T03:57:05;101062.09;;;19.14;72.51
6567;BME280;3317;43.994;22.878;2022-09-03T03:59:32;101070.16;;;19.16;72.61
6567;BME280;3317;43.994;22.878;2022-09-03T04:01:59;101052.56;;;19.10;72.30
6567;BME280;3317;43.994;22.878;2022-09-03T04:04:26;101066.53;;;19.15;71.93
6567;BME280;3317;43.994;22.878;2022-09-03T04:06:53;101058.72;;;19.12;71.59
6567;BME280;3317;43.994;22.878;2022-09-03T04:09:20;101053.19;;;19.05;72.10
6567;BME280;3317;43.994;22.878;2022-09-03T04:11:47;101064.66;;;19.16;71.80
6567;BME280;3317;43.994;22.878;2022-09-03T04:14:16;101063.78;;;19.15;72.01
6567;BME280;3317;43.994;22.878;2022-09-03T04:16:43;101068.44;;;19.14;71.71
6567;BME280;3317;43.994;22.878;2022-09-03T04:19:11;101080.28;;;19.15;71.67
6567;BME280;3317;43.994;22.878;2022-09-03T04:21:39;101029.38;;;18.84;71.46
6567;BME280;3317;43.994;22.878;2022-09-03T04:24:10;101079.63;;;19.13;72.37
6567;BME280;3317;43.994;22.878;2022-09-03T04:26:37;101078.56;;;19.14;73.15
6567;BME280;3317;43.994;22.878;2022-09-03T04:29:05;101085.75;;;19.15;73.55
6567;BME280;3317;43.994;22.878;2022-09-03T04:31:35;101074.53;;;19.10;73.73
6567;BME280;3317;43.994;22.878;2022-09-03T04:34:03;101085.34;;;19.11;74.31
6567;BME280;3317;43.994;22.878;2022-09-03T04:36:32;101095.06;;;19.14;74.50
6567;BME280;3317;43.994;22.878;2022-09-03T04:38:59;101099.06;;;19.11;74.23
6567;BME280;3317;43.994;22.878;2022-09-03T04:41:30;101095.91;;;19.14;74.17
6567;BME280;3317;43.994;22.878;2022-09-03T04:43:58;101101.41;;;19.14;74.32
6567;BME280;3317;43.994;22.878;2022-09-03T04:46:27;101102.06;;;19.17;74.56
6567;BME280;3317;43.994;22.878;2022-09-03T04:48:59;101105.84;;;19.16;74.82
6567;BME280;3317;43.994;22.878;2022-09-03T04:51:27;101098.84;;;19.13;75.36
6567;BME280;3317;43.994;22.878;2022-09-03T04:53:55;101106.69;;;19.16;75.34
6567;BME280;3317;43.994;22.878;2022-09-03T04:56:25;101102.25;;;19.15;75.02
6567;BME280;3317;43.994;22.878;2022-09-03T04:58:54;101107.34;;;19.18;74.97
6567;BME280;3317;43.994;22.878;2022-09-03T05:01:23;101108.19;;;19.19;74.95
6567;BME280;3317;43.994;22.878;2022-09-03T05:03:51;101112.00;;;19.18;74.80
6567;BME280;3317;43.994;22.878;2022-09-03T05:06:20;101068.31;;;18.94;75.14
6567;BME280;3317;43.994;22.878;2022-09-03T05:08:48;101119.63;;;19.22;74.29
6567;BME280;3317;43.994;22.878;2022-09-03T05:11:15;101121.31;;;19.23;74.67
6567;BME280;3317;43.994;22.878;2022-09-03T05:13:45;101074.91;;;19.00;74.99
6567;BME280;3317;43.994;22.878;2022-09-03T05:16:13;101113.72;;;19.25;74.95
6567;BME280;3317;43.994;22.878;2022-09-03T05:18:42;101091.94;;;19.17;75.20
6567;BME280;3317;43.994;22.878;2022-09-03T05:21:10;101105.25;;;19.20;74.85
6567;BME280;3317;43.994;22.878;2022-09-03T05:23:40;101110.78;;;19.27;74.93
6567;BME280;3317;43.994;22.878;2022-09-03T05:26:09;101063.06;;;18.99;74.98
6567;BME280;3317;43.994;22.878;2022-09-03T05:28:38;101102.50;;;19.20;75.07
6567;BME280;3317;43.994;22.878;2022-09-03T05:31:07;101129.41;;;19.32;74.56
6567;BME280;3317;43.994;22.878;2022-09-03T05:33:35;101128.38;;;19.33;74.51
6567;BME280;3317;43.994;22.878;2022-09-03T05:36:04;101118.16;;;19.26;74.66
6567;BME280;3317;43.994;22.878;2022-09-03T05:38:32;101130.69;;;19.36;75.01
6567;BME280;3317;43.994;22.878;2022-09-03T05:41:02;101127.72;;;19.31;74.66
6567;BME280;3317;43.994;22.878;2022-09-03T05:43:31;101138.75;;;19.37;74.29
6567;BME280;3317;43.994;22.878;2022-09-03T05:45:59;101133.66;;;19.41;75.15
6567;BME280;3317;43.994;22.878;2022-09-03T05:48:26;101136.22;;;19.42;76.02
6567;BME280;3317;43.994;22.878;2022-09-03T05:51:03;101139.44;;;19.46;76.44
6567;BME280;3317;43.994;22.878;2022-09-03T05:53:32;101140.25;;;19.47;76.27
6567;BME280;3317;43.994;22.878;2022-09-03T05:56:04;101130.13;;;19.47;77.13
6567;BME280;3317;43.994;22.878;2022-09-03T05:58:33;101135.44;;;19.49;77.43
6567;BME280;3317;43.994;22.878;2022-09-03T06:01:09;101132.91;;;19.54;77.69
6567;BME280;3317;43.994;22.878;2022-09-03T06:03:38;101140.13;;;19.62;78.25
6567;BME280;3317;43.994;22.878;2022-09-03T06:06:06;101139.28;;;19.68;77.83
6567;BME280;3317;43.994;22.878;2022-09-03T06:08:34;101142.28;;;19.73;78.11
6567;BME280;3317;43.994;22.878;2022-09-03T06:11:05;101148.44;;;19.75;78.16
6567;BME280;3317;43.994;22.878;2022-09-03T06:13:37;101161.38;;;19.81;77.38
6567;BME280;3317;43.994;22.878;2022-09-03T06:16:07;101153.75;;;19.83;76.51
6567;BME280;3317;43.994;22.878;2022-09-03T06:18:34;101140.16;;;19.68;75.90
6567;BME280;3317;43.994;22.878;2022-09-03T06:21:03;101168.16;;;19.86;76.44
6567;BME280;3317;43.994;22.878;2022-09-03T06:23:31;101169.44;;;19.90;76.68
6567;BME280;3317;43.994;22.878;2022-09-03T06:26:00;101174.53;;;19.93;76.40
6567;BME280;3317;43.994;22.878;2022-09-03T06:28:29;101167.78;;;19.95;76.73
6567;BME280;3317;43.994;22.878;2022-09-03T06:30:57;101155.47;;;19.84;76.99
6567;BME280;3317;43.994;22.878;2022-09-03T06:33:27;101176.69;;;20.04;76.23
6567;BME280;3317;43.994;22.878;2022-09-03T06:35:56;101177.16;;;20.08;76.38
6567;BME280;3317;43.994;22.878;2022-09-03T06:38:25;101159.16;;;20.12;76.56
6567;BME280;3317;43.994;22.878;2022-09-03T06:40:54;101174.22;;;20.16;76.33
6567;BME280;3317;43.994;22.878;2022-09-03T06:43:22;101170.81;;;20.14;76.00
6567;BME280;3317;43.994;22.878;2022-09-03T06:45:55;101175.47;;;20.20;77.03
6567;BME280;3317;43.994;22.878;2022-09-03T06:48:23;101176.75;;;20.24;76.85
6567;BME280;3317;43.994;22.878;2022-09-03T06:50:55;101177.44;;;20.26;76.72
6567;BME280;3317;43.994;22.878;2022-09-03T06:53:23;101178.06;;;20.29;77.26
6567;BME280;3317;43.994;22.878;2022-09-03T06:55:53;101168.31;;;20.26;76.75
6567;BME280;3317;43.994;22.878;2022-09-03T06:58:20;101191.59;;;20.37;76.47
6567;BME280;3317;43.994;22.878;2022-09-03T07:00:50;101185.28;;;20.36;76.61
6567;BME280;3317;43.994;22.878;2022-09-03T07:03:20;101186.53;;;20.40;76.99
6567;BME280;3317;43.994;22.878;2022-09-03T07:05:47;101180.59;;;20.44;76.32
6567;BME280;3317;43.994;22.878;2022-09-03T07:08:14;101190.38;;;20.46;76.26
6567;BME280;3317;43.994;22.878;2022-09-03T07:10:47;101175.09;;;20.37;76.17
6567;BME280;3317;43.994;22.878;2022-09-03T07:13:15;101204.13;;;20.53;76.55
6567;BME280;3317;43.994;22.878;2022-09-03T07:15:43;101195.25;;;20.58;76.50
6567;BME280;3317;43.994;22.878;2022-09-03T07:18:10;101205.00;;;20.60;76.50
6567;BME280;3317;43.994;22.878;2022-09-03T07:20:39;101203.53;;;20.64;76.74
6567;BME280;3317;43.994;22.878;2022-09-03T07:23:06;101203.09;;;20.67;76.14
6567;BME280;3317;43.994;22.878;2022-09-03T07:25:32;101202.66;;;20.71;76.53
6567;BME280;3317;43.994;22.878;2022-09-03T07:27:59;101200.16;;;20.76;76.12
6567;BME280;3317;43.994;22.878;2022-09-03T07:30:27;101168.16;;;20.61;75.42
6567;BME280;3317;43.994;22.878;2022-09-03T07:32:54;101199.31;;;20.82;74.43
6567;BME280;3317;43.994;22.878;2022-09-03T07:35:21;101198.94;;;20.85;74.52
6567;BME280;3317;43.994;22.878;2022-09-03T07:37:51;101200.38;;;20.88;74.98
6567;BME280;3317;43.994;22.878;2022-09-03T07:40:19;101194.44;;;20.91;74.38
6567;BME280;3317;43.994;22.878;2022-09-03T07:42:48;101192.75;;;20.96;74.14
6567;BME280;3317;43.994;22.878;2022-09-03T07:45:15;101192.75;;;20.96;73.66
6567;BME280;3317;43.994;22.878;2022-09-03T07:47:46;101192.97;;;20.95;74.13
6567;BME280;3317;43.994;22.878;2022-09-03T07:50:14;101190.44;;;20.93;73.94
6567;BME280;3317;43.994;22.878;2022-09-03T07:52:42;101205.06;;;21.14;74.65
6567;BME280;3317;43.994;22.878;2022-09-03T07:55:10;101205.25;;;21.26;74.66
6567;BME280;3317;43.994;22.878;2022-09-03T07:57:40;101166.47;;;21.07;74.16
6567;BME280;3317;43.994;22.878;2022-09-03T08:00:08;101213.28;;;21.41;72.85
6567;BME280;3317;43.994;22.878;2022-09-03T08:02:37;101209.25;;;21.44;72.28
6567;BME280;3317;43.994;22.878;2022-09-03T08:05:04;101207.34;;;21.44;71.65
6567;BME280;3317;43.994;22.878;2022-09-03T08:07:32;101214.75;;;21.50;71.71
6567;BME280;3317;43.994;22.878;2022-09-03T08:09:58;101208.16;;;21.65;71.68
6567;BME280;3317;43.994;22.878;2022-09-03T08:12:27;101201.78;;;21.71;71.42
6567;BME280;3317;43.994;22.878;2022-09-03T08:14:54;101208.91;;;21.92;70.96
6567;BME280;3317;43.994;22.878;2022-09-03T08:17:22;101213.09;;;22.08;70.72
6567;BME280;3317;43.994;22.878;2022-09-03T08:19:49;101215.78;;;22.22;70.75
6567;BME280;3317;43.994;22.878;2022-09-03T08:22:16;101206.38;;;22.36;69.99
6567;BME280;3317;43.994;22.878;2022-09-03T08:24:43;101213.09;;;22.54;69.15
6567;BME280;3317;43.994;22.878;2022-09-03T08:27:10;101206.78;;;22.72;69.01
6567;BME280;3317;43.994;22.878;2022-09-03T08:29:40;101211.53;;;22.90;68.45
6567;BME280;3317;43.994;22.878;2022-09-03T08:32:07;101210.53;;;23.10;67.78
6567;BME280;3317;43.994;22.878;2022-09-03T08:34:33;101205.50;;;23.26;67.24
6567;BME280;3317;43.994;22.878;2022-09-03T08:37:00;101190.94;;;23.37;66.57
6567;BME280;3317;43.994;22.878;2022-09-03T08:39:27;101209.34;;;23.69;65.67
6567;BME280;3317;43.994;22.878;2022-09-03T08:42:23;101203.69;;;23.94;64.93
6567;BME280;3317;43.994;22.878;2022-09-03T08:44:53;101200.47;;;24.16;64.38
6567;BME280;3317;43.994;22.878;2022-09-03T08:47:25;101199.47;;;24.41;63.71
6567;BME280;3317;43.994;22.878;2022-09-03T08:49:56;101144.94;;;24.41;64.01
6567;BME280;3317;43.994;22.878;2022-09-03T08:52:28;101193.00;;;24.89;62.52
6567;BME280;3317;43.994;22.878;2022-09-03T08:55:01;101189.25;;;24.96;61.12
6567;BME280;3317;43.994;22.878;2022-09-03T08:57:31;101189.88;;;25.22;60.22
6567;BME280;3317;43.994;22.878;2022-09-03T09:00:06;101194.72;;;25.38;59.08
6567;BME280;3317;43.994;22.878;2022-09-03T09:02:43;101198.44;;;25.56;58.27
6567;BME280;3317;43.994;22.878;2022-09-03T09:05:16;101193.84;;;25.50;56.54
6567;BME280;3317;43.994;22.878;2022-09-03T09:07:52;101192.63;;;25.45;56.65
6567;BME280;3317;43.994;22.878;2022-09-03T09:10:26;101193.59;;;25.63;57.71
6567;BME280;3317;43.994;22.878;2022-09-03T09:13:07;101199.13;;;25.75;56.92
6567;BME280;3317;43.994;22.878;2022-09-03T09:15:48;101195.34;;;25.93;56.81
6567;BME280;3317;43.994;22.878;2022-09-03T09:18:26;101182.50;;;26.04;56.61
6567;BME280;3317;43.994;22.878;2022-09-03T09:21:06;101197.94;;;26.24;56.00
6567;BME280;3317;43.994;22.878;2022-09-03T09:23:41;101201.34;;;26.43;55.74
6567;BME280;3317;43.994;22.878;2022-09-03T09:26:12;101192.09;;;26.71;57.71
6567;BME280;3317;43.994;22.878;2022-09-03T09:28:45;101183.16;;;26.69;54.15
6567;BME280;3317;43.994;22.878;2022-09-03T09:31:15;101196.47;;;26.84;53.75
6567;BME280;3317;43.994;22.878;2022-09-03T09:33:43;101204.09;;;27.06;54.04
6567;BME280;3317;43.994;22.878;2022-09-03T09:36:13;101196.00;;;27.22;53.54
6567;BME280;3317;43.994;22.878;2022-09-03T09:38:42;101209.03;;;27.38;52.74
6567;BME280;3317;43.994;22.878;2022-09-03T09:41:11;101202.59;;;27.55;52.79
6567;BME280;3317;43.994;22.878;2022-09-03T09:43:39;101180.91;;;27.57;51.48
6567;BME280;3317;43.994;22.878;2022-09-03T09:46:10;101182.47;;;27.70;50.80
6567;BME280;3317;43.994;22.878;2022-09-03T09:48:47;101208.59;;;27.86;50.26
6567;BME280;3317;43.994;22.878;2022-09-03T09:51:18;101205.91;;;27.96;50.41
6567;BME280;3317;43.994;22.878;2022-09-03T09:53:46;101208.22;;;28.05;49.98
6567;BME280;3317;43.994;22.878;2022-09-03T09:56:20;101217.81;;;28.14;49.44
6567;BME280;3317;43.994;22.878;2022-09-03T09:59:00;101208.72;;;28.19;48.97
6567;BME280;3317;43.994;22.878;2022-09-03T10:01:28;101217.97;;;28.24;49.59
6567;BME280;3317;43.994;22.878;2022-09-03T10:03:58;101212.41;;;28.24;48.63
6567;BME280;3317;43.994;22.878;2022-09-03T10:06:37;101209.66;;;28.30;49.52
6567;BME280;3317;43.994;22.878;2022-09-03T10:09:23;101211.97;;;28.16;47.28
6567;BME280;3317;43.994;22.878;2022-09-03T10:12:02;101195.69;;;27.80;47.51
6567;BME280;3317;43.994;22.878;2022-09-03T10:14:36;101154.66;;;27.31;48.27
6567;BME280;3317;43.994;22.878;2022-09-03T10:17:13;101215.75;;;27.60;49.65
6567;BME280;3317;43.994;22.878;2022-09-03T10:19:49;101213.81;;;27.60;49.89
6567;BME280;3317;43.994;22.878;2022-09-03T10:22:42;101210.50;;;27.63;50.17
6567;BME280;3317;43.994;22.878;2022-09-03T10:25:14;101208.31;;;27.65;49.78
6567;BME280;3317;43.994;22.878;2022-09-03T10:27:41;101206.19;;;27.73;50.45
6567;BME280;3317;43.994;22.878;2022-09-03T10:30:11;101133.50;;;27.30;50.84
6567;BME280;3317;43.994;22.878;2022-09-03T10:32:47;101205.66;;;27.76;49.60
6567;BME280;3317;43.994;22.878;2022-09-03T10:35:28;101169.81;;;27.40;48.21
6567;BME280;3317;43.994;22.878;2022-09-03T10:38:05;101197.19;;;27.48;49.00
6567;BME280;3317;43.994;22.878;2022-09-03T10:40:38;101207.22;;;27.66;51.20
6567;BME280;3317;43.994;22.878;2022-09-03T10:43:22;101195.50;;;27.64;49.57
6567;BME280;3317;43.994;22.878;2022-09-03T10:46:01;101199.75;;;27.72;50.28
6567;BME280;3317;43.994;22.878;2022-09-03T10:48:50;101184.75;;;27.73;49.82
6567;BME280;3317;43.994;22.878;2022-09-03T10:51:24;101191.53;;;27.82;49.07
6567;BME280;3317;43.994;22.878;2022-09-03T10:54:14;101166.72;;;27.81;50.08
6567;BME280;3317;43.994;22.878;2022-09-03T10:56:56;101182.75;;;27.91;48.61
6567;BME280;3317;43.994;22.878;2022-09-03T10:59:35;101185.41;;;28.08;50.21
6567;BME280;3317;43.994;22.878;2022-09-03T11:02:22;101177.78;;;28.20;50.65
6567;BME280;3317;43.994;22.878;2022-09-03T11:04:59;101180.38;;;28.27;47.74
6567;BME280;3317;43.994;22.878;2022-09-03T11:07:34;101138.06;;;28.08;46.77
6567;BME280;3317;43.994;22.878;2022-09-03T11:10:12;101177.53;;;28.49;47.62
6567;BME280;3317;43.994;22.878;2022-09-03T11:12:45;101163.97;;;28.63;48.05
6567;BME280;3317;43.994;22.878;2022-09-03T11:15:19;101177.34;;;28.94;48.60
6567;BME280;3317;43.994;22.878;2022-09-03T11:17:53;101172.50;;;29.17;48.65
6567;BME280;3317;43.994;22.878;2022-09-03T11:20:24;101171.03;;;29.47;46.63
6567;BME280;3317;43.994;22.878;2022-09-03T11:22:55;101159.94;;;29.68;46.11
6567;BME280;3317;43.994;22.878;2022-09-03T11:25:26;101158.88;;;29.84;43.68
6567;BME280;3317;43.994;22.878;2022-09-03T11:28:06;101176.31;;;30.07;43.85
6567;BME280;3317;43.994;22.878;2022-09-03T11:30:45;101170.91;;;29.95;40.85
6567;BME280;3317;43.994;22.878;2022-09-03T11:33:20;101173.16;;;29.93;42.82
6567;BME280;3317;43.994;22.878;2022-09-03T11:35:55;101172.84;;;29.84;42.85
6567;BME280;3317;43.994;22.878;2022-09-03T11:38:27;101168.34;;;29.73;43.03
6567;BME280;3317;43.994;22.878;2022-09-03T11:40:59;101178.28;;;29.48;43.31
6567;BME280;3317;43.994;22.878;2022-09-03T11:43:29;101162.78;;;29.30;43.93
6567;BME280;3317;43.994;22.878;2022-09-03T11:46:05;101160.00;;;29.30;44.03
6567;BME280;3317;43.994;22.878;2022-09-03T11:48:40;101166.06;;;29.16;44.22
6567;BME280;3317;43.994;22.878;2022-09-03T11:51:29;101171.47;;;29.33;45.35
6567;BME280;3317;43.994;22.878;2022-09-03T11:54:00;101163.50;;;29.53;46.01
6567;BME280;3317;43.994;22.878;2022-09-03T11:56:30;101168.91;;;29.70;44.93
6567;BME280;3317;43.994;22.878;2022-09-03T11:59:22;101168.94;;;29.80;44.59
6567;BME280;3317;43.994;22.878;2022-09-03T12:01:52;101171.75;;;29.85;43.93
6567;BME280;3317;43.994;22.878;2022-09-03T12:04:27;101170.66;;;29.91;44.29
6567;BME280;3317;43.994;22.878;2022-09-03T12:07:20;101162.84;;;29.93;43.30
6567;BME280;3317;43.994;22.878;2022-09-03T12:10:11;101148.00;;;29.88;44.40
6567;BME280;3317;43.994;22.878;2022-09-03T12:12:55;101153.22;;;29.63;42.49
6567;BME280;3317;43.994;22.878;2022-09-03T12:15:46;101142.44;;;29.29;43.37
6567;BME280;3317;43.994;22.878;2022-09-03T12:18:20;101163.41;;;28.94;43.67
6567;BME280;3317;43.994;22.878;2022-09-03T12:21:00;101164.03;;;28.36;44.63
6567;BME280;3317;43.994;22.878;2022-09-03T12:23:29;101154.75;;;28.03;46.64
6567;BME280;3317;43.994;22.878;2022-09-03T12:26:00;101155.41;;;27.88;46.61
6567;BME280;3317;43.994;22.878;2022-09-03T12:28:29;101148.88;;;27.77;46.53
6567;BME280;3317;43.994;22.878;2022-09-03T12:31:07;101151.53;;;27.66;47.11
6567;BME280;3317;43.994;22.878;2022-09-03T12:33:51;101153.88;;;27.75;47.59
6567;BME280;3317;43.994;22.878;2022-09-03T12:36:20;101142.41;;;27.71;47.70
6567;BME280;3317;43.994;22.878;2022-09-03T12:38:47;101153.28;;;27.73;47.27
6567;BME280;3317;43.994;22.878;2022-09-03T12:41:26;101134.44;;;27.58;47.39
6567;BME280;3317;43.994;22.878;2022-09-03T12:43:58;101146.69;;;27.57;47.39
6567;BME280;3317;43.994;22.878;2022-09-03T12:46:27;101144.16;;;27.38;47.48
6567;BME280;3317;43.994;22.878;2022-09-03T12:48:56;101130.75;;;27.12;48.42
6567;BME280;3317;43.994;22.878;2022-09-03T12:51:39;101130.94;;;27.06;48.03
6567;BME280;3317;43.994;22.878;2022-09-03T12:54:09;101133.22;;;26.92;48.54
6567;BME280;3317;43.994;22.878;2022-09-03T12:56:43;101127.16;;;26.78;48.58
6567;BME280;3317;43.994;22.878;2022-09-03T12:59:17;101122.88;;;26.87;49.46
6567;BME280;3317;43.994;22.878;2022-09-03T13:01:46;101123.09;;;26.85;47.94
6567;BME280;3317;43.994;22.878;2022-09-03T13:04:18;101126.41;;;26.82;47.90
6567;BME280;3317;43.994;22.878;2022-09-03T13:06:50;101124.69;;;26.98;48.62
6567;BME280;3317;43.994;22.878;2022-09-03T13:09:22;101123.31;;;27.18;49.28
6567;BME280;3317;43.994;22.878;2022-09-03T13:11:55;101129.22;;;27.22;47.58
6567;BME280;3317;43.994;22.878;2022-09-03T13:14:26;101129.19;;;27.39;48.80
6567;BME280;3317;43.994;22.878;2022-09-03T13:17:17;101130.31;;;27.60;48.96
6567;BME280;3317;43.994;22.878;2022-09-03T13:20:04;101121.28;;;27.75;47.65
6567;BME280;3317;43.994;22.878;2022-09-03T13:22:45;101134.53;;;27.90;47.32
6567;BME280;3317;43.994;22.878;2022-09-03T13:25:23;101124.06;;;27.97;46.64
6567;BME280;3317;43.994;22.878;2022-09-03T13:28:01;101118.56;;;28.08;46.96